Weather observations for the past three days for
Henderson-Oxford Airport
Metric (Imperial)
Date Time (edt) Wind (kph) Vis. (km) Weather Sky Cond. Temperature (ºC) Relative Humidity Wind Chill (°C) Heat Index (°C) Pressure Precipitation (cm)
Air Dwpt 6 hour altimeter (cm) sea level (mb) 1 hr 3 hr 6 hr
Max. Min.
04 21:15 E 6 16.09 Fair CLR 22 21.6 98% 76.15 0.0 0.05
04 20:35 E 7 16.09 Mostly Cloudy SCT050 BKN065 BKN080 22.7 21.3 92% 76.05 0.0 0.15
04 20:15 N 13 4.02 Light Rain SCT018 BKN060 OVC080 23 21.3 90% 76.1 0.0 0.08
04 19:55 N 13 16.09 Mostly Cloudy BKN070 22.8 20.5 34.7 22.8 87% 76.05 0.0 0.15 0.15
04 19:35 W 7 G 15 16.09 Light Rain BKN070 BKN095 24.5 18.6 70% 25 75.95 0.0 0.15
04 19:15 NW 13 G 30 6.44 Heavy Rain SCT032 BKN085 OVC120 28.1 21.7 68% 31 76.02 0.0 0.08
04 18:55 SW 9 11.27 Mostly Cloudy SCT021 SCT042 BKN085 31.5 20.6 52% 34 75.97 0.0
04 18:35 SW 17 G 26 16.09 Fair CLR 32.4 20.7 50% 35 75.95 0.0
04 18:15 SW 11 16.09 Fair CLR 32.6 20.8 50% 35 75.92 0.0
04 17:55 SW 15 16.09 Fair CLR 33 19.8 46% 35 75.95 0.0
04 17:35 SW 7 8.05 Fair with Haze CLR 33.5 18.2 40% 35 75.97 0.0
04 17:15 W 7 4.83 Partly Cloudy with Haze SCT110 33 17.8 40% 34 75.97 0.0
04 16:55 W 7 8.05 Fair with Haze CLR 32.4 16.9 39% 33 75.97 0.0
04 16:35 SW 15 16.09 Partly Cloudy SCT075 SCT090 SCT120 33.1 18.1 41% 34 75.95 0.0
04 16:15 SW 17 G 30 16.09 Partly Cloudy SCT090 SCT110 33.7 20.9 47% 37 75.97 0.0
04 15:55 SW 15 16.09 Partly Cloudy SCT050 SCT060 SCT085 33.6 20.4 46% 36 76 0.0
04 15:35 SW 13 16.09 Mostly Cloudy BKN060 BKN075 33.1 20.4 47% 36 76 0.0
04 15:15 S 13 16.09 Mostly Cloudy BKN060 BKN080 34.2 20.2 44% 37 76 0.0
04 14:55 Calm 16.09 Mostly Cloudy BKN060 34.4 20.3 44% 37 76.05 0.0
04 14:35 S 7 16.09 Mostly Cloudy BKN060 33.4 20.5 47% 36 76.07 0.0
04 14:15 Calm 16.09 Partly Cloudy SCT060 34.2 20.9 46% 37 76.1 0.0
04 13:55 S 9 11.27 Mostly Cloudy BKN060 BKN070 34.7 21.5 34.9 24 46% 39 76.1 0.0
04 13:35 SW 13 16.09 Partly Cloudy SCT060 SCT070 34.6 21.6 47% 39 76.12 0.0
04 13:15 SW 6 16.09 Fair CLR 34.2 21.4 47% 38 76.12 0.0
04 12:55 S 6 16.09 Fair CLR 33.9 21.2 47% 37 76.15 0.0
04 12:35 SW 6 16.09 Fair CLR 33.3 22 52% 37 76.17 0.0
04 12:15 SW 11 16.09 Fair CLR 32.7 22 53% 37 76.17 0.0
04 11:55 S 7 16.09 Fair CLR 32.3 22.1 55% 36 76.2 0.0
04 11:35 Calm 16.09 Fair CLR 31.7 22.3 57% 36 76.23 0.0
04 11:15 SW 7 16.09 Fair CLR 31.7 22.5 58% 36 76.23 0.0
04 10:55 SW 6 16.09 Fair CLR 31 21.9 58% 34 76.25 0.0
04 10:35 W 7 16.09 Fair CLR 30.6 21.9 60% 34 76.23 0.0
04 10:15 W 11 16.09 Fair CLR 29.8 21.9 63% 33 76.23 0.0
04 09:55 W 13 16.09 Fair CLR 28.6 21.8 67% 31 76.23 0.0
04 09:35 SW 11 8.05 Fair with Haze CLR 27.9 21.7 69% 30 76.23 0.0
04 09:15 W 11 16.09 Fair CLR 27 21.5 72% 29 76.23 0.0
04 08:55 W 11 16.09 Fair CLR 26.3 21.3 74% 28 76.23 0.0
04 08:35 SW 13 16.09 Fair CLR 25.5 21.2 77% 27 76.25 0.0
04 08:15 SW 11 16.09 Fair CLR 24.8 21.2 80% 26 76.25 0.0
04 07:55 SW 9 16.09 Fair CLR 24 21.3 24.8 22.5 85% 24 76.25 0.0
04 07:35 SW 11 16.09 Fair CLR 23.2 21.5 90% 76.25 0.0
04 07:15 SW 11 16.09 Fair CLR 22.6 21.5 94% 76.25 0.0
04 06:55 SW 13 16.09 Fair CLR 22.5 21.5 94% 76.23 0.0
04 06:35 SW 11 16.09 Fair CLR 22.6 21.3 92% 76.23 0.0
04 06:15 SW 11 16.09 Fair CLR 22.7 21.2 91% 76.23 0.0
04 05:55 SW 11 16.09 Fair CLR 22.8 21.2 91% 76.2 0.0
04 05:35 SW 11 16.09 Fair CLR 22.9 21.1 90% 76.2 0.0
04 05:15 SW 9 16.09 Fair CLR 23.1 21 88% 76.2 0.0
04 04:55 SW 11 16.09 Fair CLR 23.3 20.9 86% 76.2 0.0
04 04:35 SW 9 16.09 Fair CLR 23.6 21 85% 76.2 0.0
04 04:15 SW 11 16.09 Fair CLR 23.8 20.8 83% 76.17 0.0
04 03:55 SW 11 11.27 Fair CLR 24.2 20.8 81% 25 76.17 0.0
04 03:35 SW 13 16.09 Fair CLR 24.5 20.8 80% 25 76.17 0.0
04 03:15 SW 11 16.09 Fair CLR 24.5 21 81% 25 76.17 0.0
04 02:55 SW 13 11.27 Fair CLR 24.7 21.1 80% 25 76.17 0.0
04 02:35 SW 11 16.09 Fair CLR 24.7 21.4 82% 25 76.2 0.0
04 02:15 SW 11 16.09 Fair CLR 24.8 21.6 82% 25 76.2 0.0
04 01:55 SW 11 16.09 Fair CLR 24.7 21.8 29.5 24.6 84% 25 76.25 0.0
04 01:35 SW 9 16.09 Fair CLR 24.8 21.7 83% 25 76.28 0.0
04 01:15 SW 9 16.09 Fair CLR 25 21.7 82% 26 76.28 0.0
04 00:55 SW 9 16.09 Light Rain CLR 24.8 21.5 82% 25 76.28 0.0
04 00:35 SW 7 16.09 Fair CLR 25.2 21.5 80% 26 76.28 0.0
04 00:15 SW 9 16.09 Fair CLR 25.1 21.3 80% 26 76.28 0.0
03 23:55 SW 7 16.09 Fair CLR 25.2 21.2 79% 26 76.25 0.0
03 23:35 SW 9 16.09 Fair CLR 25.2 21 78% 26 76.25 0.0
03 23:15 SW 6 16.09 Fair CLR 26.3 21 73% 28 76.25 0.0
03 22:55 S 9 16.09 Fair CLR 27 20.8 69% 29 76.25 0.0
03 22:35 SW 9 16.09 Fair CLR 26.3 20.9 72% 28 76.25 0.0
03 22:15 S 7 16.09 Fair CLR 25.7 20.9 75% 27 76.28 0.0
03 21:55 SW 6 6.44 Fair with Haze CLR 27.2 20.5 67% 29 76.28 0.0
03 21:35 SW 7 11.27 Fair CLR 27 20.6 68% 29 76.28 0.0
03 21:15 SW 6 8.05 Fair with Haze CLR 27.9 20.6 65% 30 76.25 0.0
03 20:55 SW 6 16.09 Fair CLR 27.6 20.8 67% 30 76.23 0.0
03 20:35 S 6 16.09 Fair CLR 28.8 20.9 62% 31 76.2 0.0
03 20:15 S 7 16.09 Fair CLR 29.4 20.8 60% 32 76.17 0.0
03 19:55 SW 7 16.09 Fair CLR 29.8 20.8 35.2 29.3 58% 32 76.15 0.0
03 19:35 Calm 16.09 Light Rain CLR 30.5 20.9 57% 33 76.12 0.0
03 19:15 S 7 16.09 Fair CLR 31.5 20.3 51% 34 76.15 0.0
03 18:55 Calm 16.09 Fair CLR 32.5 19.2 45% 34 76.12 0.0
03 18:35 SW 6 16.09 Fair CLR 33 18.5 42% 34 76.12 0.0
03 18:15 SW 9 16.09 Fair CLR 33.6 17.6 38% 34 76.12 0.0
03 17:55 SW 13 6.44 Fair with Haze CLR 34.3 16.8 35% 35 76.15 0.0
03 17:35 SW 7 8.05 Fair with Haze CLR 34.5 17.7 37% 35 76.15 0.0
03 17:15 SW 11 16.09 Fair CLR 34.7 18.3 38% 36 76.15 0.0
03 16:55 W 11 16.09 Fair CLR 34.7 18.6 39% 36 76.15 0.0
03 16:35 W 11 16.09 Fair CLR 34.9 18.8 39% 37 76.17 0.0
03 16:15 SW 9 16.09 Fair CLR 34.7 19.4 41% 37 76.2 0.0
03 15:55 S 9 16.09 Fair CLR 35 19.2 39% 37 76.2 0.0
03 15:35 SE 9 16.09 Fair CLR 34.7 18.9 39% 36 76.23 0.0
03 15:15 W 6 16.09 Fair CLR 34.9 18.6 38% 36 76.23 0.0
03 14:55 SE 9 16.09 Fair CLR 34.7 17.9 37% 36 76.25 0.0
03 14:35 S 6 11.27 Fair CLR 34.2 18.7 40% 36 76.25 0.0
03 14:15 S 7 16.09 Partly Cloudy SCT060 34.8 19.8 41% 37 76.28 0.0
03 13:55 SE 9 16.09 Fair CLR 32.9 19.7 34.1 22 46% 35 76.3 0.0
03 13:35 SE 7 16.09 Partly Cloudy SCT055 34.1 21 46% 37 76.3 0.0
03 13:15 Calm 16.09 Mostly Cloudy BKN055 BKN070 33 19.7 45% 35 76.33 0.0
03 12:55 Calm 16.09 Partly Cloudy SCT055 SCT065 33.6 20.6 46% 36 76.33 0.0
03 12:35 E 7 16.09 Partly Cloudy SCT055 33 20.5 48% 36 76.35 0.0
03 12:15 Calm 11.27 Fair CLR 32.8 21.3 51% 36 76.35 0.0
03 11:55 Calm 16.09 Fair CLR 32 20.6 51% 35 76.38 0.0
03 11:35 Calm 16.09 Fair CLR 31.8 21.4 54% 35 76.38 0.0
03 11:15 Calm 16.09 Fair CLR 30.7 21.4 58% 34 76.38 0.0
03 10:55 Calm 16.09 Fair CLR 30.1 21.7 61% 33 76.38 0.0
03 10:35 SW 6 16.09 Fair CLR 29.3 21.6 63% 32 76.38 0.0
03 10:15 Calm 16.09 Fair CLR 28.8 21.4 64% 31 76.38 0.0
03 09:55 SW 6 16.09 Fair CLR 28.1 21.4 67% 30 76.38 0.0
03 09:35 Calm 16.09 Fair CLR 27.2 21.3 70% 29 76.38 0.0
03 09:15 Calm 16.09 Fair CLR 26.5 21.3 73% 28 76.38 0.0
03 08:55 Calm 16.09 Fair CLR 25.4 21.4 79% 27 76.38 0.0
03 08:35 Calm 16.09 Fair CLR 24.5 21.2 82% 25 76.4 0.0
03 08:15 Calm 16.09 Fair CLR 23.1 21.3 90% 76.38 0.0
03 07:55 Calm 16.09 Fair CLR 21.8 21.5 21.9 19.5 98% 76.4 0.0
03 07:35 Calm 16.09 Fair CLR 20.5 20.4 99% 76.38 0.0
03 07:15 Calm 16.09 Fair CLR 19.9 19.7 99% 76.38 0.0
03 06:55 Calm 11.27 Fair CLR 19.7 19.6 99% 76.33 0.0
03 06:35 Calm 16.09 Fair CLR 19.7 19.6 99% 76.33 0.0
03 06:15 Calm 16.09 Fair CLR 19.6 19.5 99% 76.3 0.0
03 05:55 Calm 11.27 Fair CLR 19.5 19.5 100% 76.3 0.0
03 05:35 Calm 16.09 Fair CLR 20.2 20.1 99% 76.3 0.0
03 05:15 Calm 16.09 Fair CLR 20.3 20.2 99% 76.3 0.0
03 04:55 Calm 16.09 Fair CLR 20.1 20 99% 76.3 0.0
03 04:35 Calm 16.09 Fair CLR 20 20 100% 76.3 0.0
03 04:15 Calm 16.09 Fair CLR 20.7 20.3 98% 76.3 0.0
03 03:55 Calm 16.09 Fair CLR 21 20.4 96% 76.3 0.0
03 03:35 Calm 16.09 Fair CLR 21.4 20 92% 76.3 0.0
03 03:15 Calm 16.09 Fair CLR 21.2 20 93% 76.28 0.0
03 02:55 SW 6 16.09 Fair CLR 21 19.9 93% 76.28 0.0
03 02:35 Calm 16.09 Fair CLR 21 20 94% 76.3 0.0
03 02:15 SW 7 16.09 Fair CLR 21.6 19.7 89% 76.28 0.0
03 01:55 SW 6 16.09 Fair CLR 21.8 19.6 28.7 21.5 87% 76.3 0.0
03 01:35 SW 6 16.09 Fair CLR 22.1 19.4 85% 76.3 0.0
03 01:15 SW 6 16.09 Fair CLR 22.3 19.3 83% 76.3 0.0
03 00:55 Calm 16.09 Fair CLR 21.5 19.7 90% 76.3 0.0
03 00:35 Calm 16.09 Fair CLR 21.9 19.6 87% 76.3 0.0
03 00:15 Calm 16.09 Fair CLR 21.6 19.6 88% 76.33 0.0
02 23:55 Calm 11.27 Fair CLR 22.8 19.2 80% 76.33 0.0
02 23:35 Calm 16.09 Fair CLR 22.6 19.1 81% 76.33 0.0
02 23:15 Calm 16.09 Fair CLR 23 18.8 77% 76.33 0.0
02 22:55 Calm 16.09 Fair CLR 23.3 18.8 76% 76.33 0.0
02 22:35 Calm 16.09 Fair CLR 24 18.6 72% 25 76.33 0.0
02 22:15 Calm 16.09 Fair CLR 24.1 18.6 71% 25 76.35 0.0
02 21:55 SE 6 16.09 Fair CLR 25 18.5 67% 26 76.35 0.0
02 21:35 S 6 16.09 Fair CLR 25.3 18.5 66% 26 76.38 0.0
02 21:15 SE 6 16.09 Fair CLR 25.7 18.5 65% 27 76.38 0.0
02 20:55 SE 17 16.09 Fair CLR 26.5 18.2 60% 27 76.38 0.0
02 20:35 SE 15 16.09 Fair CLR 27.2 18.2 58% 28 76.35 0.0
02 20:15 E 15 G 30 16.09 Fair CLR 28 19.2 59% 29 76.3 0.0
02 19:55 Calm 16.09 Fair CLR 28.3 20.1 34.7 28.3 61% 30 76.28 0.0
02 19:35 Calm 16.09 Fair CLR 30.2 19.4 52% 32 76.25 0.0
02 19:15 Calm 16.09 Fair CLR 31.5 19.4 49% 33 76.3 0.0
02 18:55 Calm 16.09 Fair CLR 32.2 18.3 44% 33 76.3 0.0
02 18:35 Calm 16.09 Fair CLR 32.7 18.5 43% 34 76.3 0.0
02 18:15 E 6 16.09 Fair CLR 33.5 18.2 40% 35 76.28 0.0
02 17:55 Calm 16.09 Fair CLR 33.9 18 39% 35 76.28 0.0
02 17:35 Calm 16.09 Fair CLR 34.1 18 38% 35 76.28 0.0
02 17:15 Calm 16.09 Fair CLR 34.4 18.1 38% 36 76.28 0.0
02 16:55 E 6 16.09 Fair CLR 34.1 18.2 39% 35 76.28 0.0
02 16:35 SE 9 16.09 Partly Cloudy SCT065 34.2 18.2 39% 35 76.3 0.0
02 16:15 NE 6 16.09 Mostly Cloudy BKN065 BKN075 34.7 18.5 38% 36 76.3 0.0
02 15:55 S 6 16.09 Partly Cloudy SCT065 SCT075 34.3 18.9 40% 36 76.3 0.0
02 15:35 NE 9 16.09 Partly Cloudy SCT065 SCT085 33.7 18.9 42% 35 76.33 0.0
02 15:15 NE 7 16.09 Partly Cloudy SCT065 34.1 18.7 40% 36 76.35 0.0
02 14:55 E 9 16.09 Fair CLR 34.3 18.9 40% 36 76.35 0.0
02 14:35 E 9 16.09 Fair CLR 33.8 18.1 39% 35 76.38 0.0
02 14:15 Calm 16.09 Fair CLR 33.8 18.8 41% 35 76.38 0.0
02 13:55 Calm 16.09 Fair CLR 33.1 20 33.5 23.2 46% 35 76.38 0.0
02 13:35 E 7 16.09 Partly Cloudy SCT055 33.4 20 45% 36 76.38 0.0
02 13:15 Calm 16.09 Fair CLR 32.7 20 47% 35 76.38 0.0
02 12:55 E 7 16.09 Fair CLR 32.6 19.9 47% 35 76.4 0.0
02 12:35 E 7 16.09 Fair CLR 32.7 19.9 47% 35 76.4 0.0
02 12:15 SE 9 16.09 Fair CLR 32.2 20.1 49% 34 76.43 0.0
02 11:55 E 11 16.09 Fair CLR 32.3 20.3 49% 35 76.43 0.0
02 11:35 Calm 6.44 Fair with Haze CLR 31.1 20.4 53% 33 76.43 0.0
02 11:15 Calm 4.02 Fair with Haze CLR 30.6 20.3 54% 33 76.45 0.0
02 10:55 Calm 4.83 Fair with Haze CLR 30 19.8 54% 32 76.45 0.0
02 10:35 Calm 16.09 Fair CLR 29.7 20.4 57% 32 76.43 0.0
02 10:15 Calm 16.09 Fair CLR 29.1 20 58% 31 76.43 0.0
02 09:55 NE 7 16.09 Fair CLR 28.9 20 59% 31 76.43 0.0
02 09:35 Calm 16.09 Fair CLR 28.4 19.9 60% 30 76.43 0.0
02 09:15 Calm 16.09 Fair CLR 27.3 20 64% 29 76.43 0.0
02 08:55 Calm 6.44 Fair with Haze CLR 26.7 20.1 67% 28 76.43 0.0
02 08:35 Calm 8.05 Fair with Haze CLR 25.7 20.2 72% 27 76.43 0.0
02 08:15 Calm 8.05 Fair with Haze CLR 24.6 20.1 76% 25 76.43 0.0
02 07:50 Calm 11.27 Fair CLR 22.7 21.6 25.4 20.6 94% 76.43 0.0
02 07:35 Calm 11.27 Fair CLR 21.8 21.4 98% 76.43 0.0
02 07:15 Calm 8.05 Fog/Mist CLR 20.8 20.7 99% 76.4 0.0
02 06:55 Calm 8.05 Fog/Mist CLR 21.1 20.6 97% 76.38 0.0
02 06:35 Calm 11.27 Fair CLR 21.5 20.4 93% 76.38 0.0
02 06:15 Calm 11.27 Fair CLR 21.4 21 98% 76.38 0.0
02 05:55 Calm 11.27 Fair CLR 21.4 20.7 96% 76.38 0.0
02 05:35 Calm 11.27 Fair CLR 21.7 21 96% 76.35 0.0
02 05:15 Calm 16.09 Fair CLR 22 20.7 92% 76.35 0.0
02 04:55 Calm 11.27 Fair CLR 22.2 20.7 91% 76.35 0.0
02 04:35 Calm 11.27 Fair CLR 22.9 20.5 86% 76.33 0.0
02 04:15 Calm 11.27 Fair CLR 23 20.8 87% 76.33 0.0
02 03:55 W 6 8.05 Fair with Haze CLR 23.6 20.7 84% 76.33 0.0
02 03:35 Calm 8.05 Fog/Mist CLR 23.3 21.1 88% 76.33 0.0
02 03:15 SW 7 11.27 Fair CLR 23 21.3 90% 76.35 0.0
02 02:55 SW 6 11.27 Fair CLR 23.3 21 87% 76.35 0.0
02 02:35 SW 9 11.27 Fair CLR 23 21 89% 76.35 0.0
02 02:15 SW 7 8.05 Fair with Haze CLR 23.9 20.5 81% 24 76.35 0.0
02 01:55 W 6 8.05 Fair with Haze CLR 25.1 20.3 28.6 24.2 75% 26 76.35 0.0
02 01:35 W 6 11.27 Fair CLR 25.5 20.5 74% 27 76.35 0.0
02 01:15 W 6 11.27 Fair CLR 25.1 20.5 76% 26 76.35 0.0
02 00:55 W 6 11.27 Fair CLR 25.2 20.6 76% 26 76.33 0.0
02 00:35 W 6 11.27 Fair CLR 25.2 20.6 76% 26 76.3 0.0
02 00:15 SW 6 16.09 Fair CLR 24.7 20.6 78% 25 76.3 0.0
01 23:55 SW 7 16.09 Fair CLR 25 20.6 77% 26 76.3 0.0
01 23:35 SW 7 16.09 Fair CLR 24.7 20.6 78% 25 76.3 0.0
01 23:15 SW 7 16.09 Fair CLR 24.5 20.5 78% 25 76.3 0.0
01 22:55 SW 6 16.09 Fair CLR 25.3 20.4 74% 26 76.3 0.0
01 22:35 Calm 16.09 Fair CLR 25.7 20.3 72% 27 76.3 0.0
01 22:15 Calm 16.09 Fair CLR 26.2 20.3 70% 28 76.28 0.0
01 21:55 Calm 16.09 Fair CLR 25.5 20.9 76% 27 76.28 0.0
01 21:35 Calm 16.09 Fair CLR 26.7 20.5 69% 28 76.25 0.0
Date Time (edt) Wind (kph) Vis. (km) Weather Sky Cond. Air Dwpt Max. Min. Relative Humidity Wind Chill (°C) Heat Index (°C) altimeter (cm) sea level (mb) 1 hr 3 hr 6 hr
6 hour
Temperature (ºC) Pressure Precipitation (cm)